createdAt,value
2019-03-24T00:01:41.324Z,17.30
2019-03-24T00:11:43.695Z,21.48
2019-03-24T00:21:49.253Z,29.67
2019-03-24T00:41:58.265Z,20.32
2019-03-24T01:02:06.772Z,21.82
2019-03-24T01:12:11.654Z,19.87
2019-03-24T01:52:28.314Z,17.35
2019-03-24T02:12:37.307Z,18.80
2019-03-24T02:32:46.723Z,20.80
2019-03-24T02:42:51.326Z,19.00
2019-03-24T03:02:59.705Z,21.45
2019-03-24T03:13:04.315Z,21.40
2019-03-24T03:33:13.254Z,28.70
2019-03-24T03:53:21.662Z,29.37
2019-03-24T04:23:33.628Z,20.70
2019-03-24T04:53:46.137Z,21.40
2019-03-24T05:13:54.647Z,26.75
2019-03-24T05:44:07.096Z,22.45
2019-03-24T05:54:11.655Z,22.45
2019-03-24T06:04:16.307Z,21.40
2019-03-24T06:14:20.654Z,23.50
2019-03-24T06:44:33.044Z,18.25
2019-03-24T06:54:37.679Z,20.02
2019-03-24T07:04:42.273Z,18.00
2019-03-24T07:24:51.609Z,13.38
2019-03-24T07:44:59.615Z,8.25
2019-03-24T08:05:09.615Z,7.12
2019-03-24T08:15:14.235Z,7.90
2019-03-24T08:35:24.288Z,8.20
2019-03-24T09:05:36.967Z,6.83
2019-03-24T09:15:43.223Z,5.12
2019-03-24T09:45:56.396Z,6.60
2019-03-24T10:06:05.095Z,5.55
2019-03-24T10:26:14.273Z,4.45
2019-03-24T10:46:23.279Z,4.53
2019-03-24T11:06:32.652Z,4.90
2019-03-24T11:16:37.529Z,5.53
2019-03-24T11:36:46.235Z,4.10
2019-03-24T11:46:51.120Z,3.10
2019-03-24T11:56:56.229Z,3.40
2019-03-24T12:07:01.163Z,3.40
2019-03-24T12:37:14.094Z,4.95
2019-03-24T12:47:19.284Z,4.42
2019-03-24T13:07:28.224Z,3.70
2019-03-24T13:27:36.654Z,4.35
2019-03-24T13:37:41.303Z,5.22
2019-03-24T13:57:50.101Z,5.90
2019-03-24T14:17:59.121Z,5.03
2019-03-24T14:44:04.052Z,7.15
2019-03-24T15:06:47.073Z,6.33
2019-03-24T15:16:51.652Z,7.37
2019-03-24T15:37:00.110Z,5.12
2019-03-24T15:47:06.119Z,4.70
2019-03-24T15:57:10.888Z,5.62
2019-03-24T16:07:15.623Z,4.92
2019-03-24T16:17:20.255Z,5.62
2019-03-24T16:37:28.936Z,5.75
2019-03-24T16:47:34.221Z,8.68
2019-03-24T17:07:43.645Z,8.43
2019-03-24T17:17:48.319Z,12.13
2019-03-24T17:37:56.632Z,23.75
2019-03-24T17:48:01.396Z,31.60
2019-03-24T18:08:10.233Z,28.80
2019-03-24T18:18:15.030Z,40.85
2019-03-24T18:28:20.096Z,47.80
2019-03-24T18:48:28.984Z,37.15
2019-03-24T18:58:34.134Z,82.02
2019-03-24T19:08:39.228Z,55.90
2019-03-24T19:28:47.661Z,56.42
2019-03-24T19:38:53.223Z,54.25
2019-03-24T19:59:01.643Z,100.53
2019-03-24T20:09:08.484Z,49.70
2019-03-24T20:39:21.171Z,58.33
2019-03-24T20:59:30.273Z,86.92
2019-03-24T21:19:39.026Z,81.72
2019-03-24T21:29:43.920Z,90.07
2019-03-24T21:39:48.627Z,123.02
2019-03-24T22:10:01.230Z,74.95
2019-03-24T22:30:11.616Z,55.70
2019-03-24T23:10:30.822Z,53.55
